Time;durP1;ratioP1;P1;durP2;ratioP2;P2;SDS_P1;SDS_P2;PMS_P1;PMS_P2;Temp;Humidity;BMP_temperature;BMP_pressure;BME280_temperature;BME280_humidity;BME280_pressure;Samples;Min_cycle;Max_cycle;Signal;HPM_P1;HPM_P2
2022/08/15 00:00:52;;;;;;;4.20;2.30;;;;;;;;;;5030181;28;20491;-79
2022/08/15 00:03:26;;;;;;;6.03;3.15;;;;;;;;;;5012921;28;20702;-79
2022/08/15 00:05:54;;;;;;;5.47;3.03;;;;;;;;;;5030329;28;20057;-79
2022/08/15 00:08:20;;;;;;;5.75;2.53;;;;;;;;;;5025222;28;20052;-79
2022/08/15 00:10:47;;;;;;;6.22;2.67;;;;;;;;;;5025933;28;20033;-79
2022/08/15 00:13:14;;;;;;;5.72;2.88;;;;;;;;;;5020241;28;20820;-79
2022/08/15 00:15:40;;;;;;;6.63;2.70;;;;;;;;;;5030480;28;20079;-79
2022/08/15 00:18:06;;;;;;;4.40;2.20;;;;;;;;;;5030501;28;20034;-79
2022/08/15 00:20:37;;;;;;;5.13;2.72;;;;;;;;;;5030469;28;20025;-79
2022/08/15 00:23:03;;;;;;;6.72;2.50;;;;;;;;;;5030244;28;20029;-79
2022/08/15 00:25:29;;;;;;;4.70;2.30;;;;;;;;;;5023613;28;20853;-79
2022/08/15 00:27:56;;;;;;;5.40;2.30;;;;;;;;;;5030470;28;20386;-79
2022/08/15 00:30:22;;;;;;;5.97;2.78;;;;;;;;;;5030737;28;20418;-79
2022/08/15 00:32:55;;;;;;;4.00;2.47;;;;;;;;;;5029930;28;20044;-79
2022/08/15 00:35:37;;;;;;;6.13;2.17;;;;;;;;;;5030360;28;20038;-79
2022/08/15 00:38:13;;;;;;;5.43;2.38;;;;;;;;;;5027990;28;20701;-79
2022/08/15 00:43:25;;;;;;;4.93;2.20;;;;;;;;;;5029857;28;20064;-79
2022/08/15 00:45:51;;;;;;;4.10;2.28;;;;;;;;;;5029937;28;20030;-79
2022/08/15 00:51:03;;;;;;;5.95;3.17;;;;;;;;;;5024313;28;20604;-79
2022/08/15 00:53:29;;;;;;;5.30;2.30;;;;;;;;;;5030645;28;20191;-79
2022/08/15 00:55:57;;;;;;;6.80;3.40;;;;;;;;;;5025685;28;20474;-79
2022/08/15 00:58:23;;;;;;;7.03;3.13;;;;;;;;;;5029951;28;20025;-79
2022/08/15 01:00:50;;;;;;;3.88;2.72;;;;;;;;;;5028454;28;20057;-79
2022/08/15 01:03:27;;;;;;;7.40;2.67;;;;;;;;;;5028222;28;20029;-79
2022/08/15 01:05:56;;;;;;;6.43;2.50;;;;;;;;;;5031544;28;20033;-79
2022/08/15 01:08:23;;;;;;;4.80;2.67;;;;;;;;;;5022995;28;20123;-79
2022/08/15 01:10:50;;;;;;;5.20;3.15;;;;;;;;;;5031827;28;20909;-79
2022/08/15 01:13:16;;;;;;;4.20;2.35;;;;;;;;;;5030405;28;20053;-79
2022/08/15 01:15:43;;;;;;;3.58;2.30;;;;;;;;;;5020746;28;20037;-79
2022/08/15 01:18:09;;;;;;;5.75;2.70;;;;;;;;;;5025665;28;20025;-79
2022/08/15 01:20:35;;;;;;;5.15;2.55;;;;;;;;;;5029868;28;20045;-79
2022/08/15 01:23:16;;;;;;;4.78;2.63;;;;;;;;;;5029046;28;20029;-79
2022/08/15 01:25:57;;;;;;;5.68;2.70;;;;;;;;;;5031457;28;20037;-79
2022/08/15 01:28:32;;;;;;;4.80;2.53;;;;;;;;;;5028975;28;20470;-79
2022/08/15 01:31:00;;;;;;;5.10;2.75;;;;;;;;;;5029470;28;20029;-79
2022/08/15 01:33:27;;;;;;;6.53;3.25;;;;;;;;;;5028916;28;20041;-79
2022/08/15 01:35:54;;;;;;;5.90;2.95;;;;;;;;;;5029705;28;20032;-79
2022/08/15 01:38:25;;;;;;;7.75;3.75;;;;;;;;;;5028891;28;20022;-79
2022/08/15 01:40:59;;;;;;;5.90;2.47;;;;;;;;;;5029527;28;20537;-79
2022/08/15 01:43:27;;;;;;;6.18;2.60;;;;;;;;;;5028559;28;20033;-79
2022/08/15 01:45:54;;;;;;;7.28;3.35;;;;;;;;;;5028856;28;20803;-79
2022/08/15 01:48:41;;;;;;;5.82;2.97;;;;;;;;;;5026620;28;20394;-79
2022/08/15 01:51:07;;;;;;;6.22;3.00;;;;;;;;;;5029980;28;20072;-79
2022/08/15 01:53:34;;;;;;;4.50;2.85;;;;;;;;;;5023230;28;20364;-79
2022/08/15 01:56:12;;;;;;;7.70;3.42;;;;;;;;;;5033133;28;20034;-79
2022/08/15 01:58:39;;;;;;;6.22;3.42;;;;;;;;;;5033063;28;20030;-79
2022/08/15 02:01:17;;;;;;;4.88;2.58;;;;;;;;;;5029458;28;20091;-79
2022/08/15 02:03:45;;;;;;;4.25;2.70;;;;;;;;;;5027869;28;20065;-79
2022/08/15 02:06:13;;;;;;;8.55;3.75;;;;;;;;;;5028599;28;20029;-79
2022/08/15 02:08:40;;;;;;;7.72;3.03;;;;;;;;;;5028577;28;20041;-78
2022/08/15 02:11:17;;;;;;;6.00;3.40;;;;;;;;;;5031386;28;20482;-79
2022/08/15 02:13:46;;;;;;;5.97;2.85;;;;;;;;;;5031963;28;20049;-78
2022/08/15 02:16:13;;;;;;;7.32;3.28;;;;;;;;;;5029371;28;20128;-79
2022/08/15 02:18:39;;;;;;;4.85;2.92;;;;;;;;;;5029780;28;20686;-79
2022/08/15 02:21:05;;;;;;;5.57;3.17;;;;;;;;;;5031739;28;20112;-78
2022/08/15 02:23:31;;;;;;;4.97;3.13;;;;;;;;;;5029833;28;20072;-79
2022/08/15 02:25:58;;;;;;;6.72;2.67;;;;;;;;;;5032443;28;20030;-78
2022/08/15 02:28:25;;;;;;;6.68;3.35;;;;;;;;;;5031834;28;20029;-79
2022/08/15 02:30:52;;;;;;;6.68;3.45;;;;;;;;;;5031597;28;20521;-78
2022/08/15 02:33:19;;;;;;;5.97;3.15;;;;;;;;;;5027918;28;20030;-79
2022/08/15 02:35:45;;;;;;;5.60;2.85;;;;;;;;;;5030361;28;20422;-79
2022/08/15 02:38:11;;;;;;;8.25;3.95;;;;;;;;;;5031942;28;20025;-79
2022/08/15 02:40:37;;;;;;;7.25;3.25;;;;;;;;;;5032857;28;20044;-79
2022/08/15 02:43:07;;;;;;;7.57;3.00;;;;;;;;;;5031695;28;20025;-79
2022/08/15 02:45:37;;;;;;;4.50;2.78;;;;;;;;;;5032532;28;20033;-78
2022/08/15 02:48:04;;;;;;;4.45;3.20;;;;;;;;;;5027032;28;20041;-79
2022/08/15 02:50:30;;;;;;;9.65;3.88;;;;;;;;;;5031398;28;20045;-79
2022/08/15 02:52:57;;;;;;;12.02;3.08;;;;;;;;;;5029473;28;20025;-79
2022/08/15 02:55:23;;;;;;;7.28;3.85;;;;;;;;;;5030823;28;20429;-79
2022/08/15 02:57:49;;;;;;;5.88;3.03;;;;;;;;;;5029130;28;20044;-78
2022/08/15 03:00:16;;;;;;;5.60;3.35;;;;;;;;;;5031343;28;20046;-79
2022/08/15 03:03:08;;;;;;;5.72;3.00;;;;;;;;;;5030758;28;20063;-78
2022/08/15 03:05:35;;;;;;;7.28;3.60;;;;;;;;;;5028770;28;20041;-78
2022/08/15 03:08:02;;;;;;;4.95;2.85;;;;;;;;;;5031953;28;20497;-79
2022/08/15 03:10:28;;;;;;;6.50;3.15;;;;;;;;;;5031412;28;20592;-79
2022/08/15 03:12:57;;;;;;;6.40;2.75;;;;;;;;;;5031627;28;20860;-79
2022/08/15 03:15:27;;;;;;;6.40;3.28;;;;;;;;;;5031389;28;20068;-79
2022/08/15 03:17:53;;;;;;;6.07;3.40;;;;;;;;;;5030936;28;20028;-79
2022/08/15 03:20:19;;;;;;;5.20;3.08;;;;;;;;;;5081231;22;20404;-79
2022/08/15 03:22:47;;;;;;;5.40;3.30;;;;;;;;;;5076030;28;20428;-79
2022/08/15 03:25:13;;;;;;;5.60;3.67;;;;;;;;;;5079782;28;20130;-78
2022/08/15 03:27:40;;;;;;;8.40;3.58;;;;;;;;;;5076467;28;20032;-79
2022/08/15 03:30:07;;;;;;;6.10;3.50;;;;;;;;;;5080677;28;20020;-79
2022/08/15 03:32:41;;;;;;;6.78;3.63;;;;;;;;;;5082218;28;20111;-79
2022/08/15 03:35:07;;;;;;;7.13;3.30;;;;;;;;;;5076824;28;20046;-79
2022/08/15 03:37:33;;;;;;;5.53;3.10;;;;;;;;;;5075253;28;20036;-78
2022/08/15 03:39:59;;;;;;;6.55;3.13;;;;;;;;;;5085311;28;20020;-79
2022/08/15 03:42:27;;;;;;;4.78;2.83;;;;;;;;;;5083945;28;20053;-79
2022/08/15 03:44:53;;;;;;;6.18;3.65;;;;;;;;;;5088585;28;20362;-79
2022/08/15 03:47:21;;;;;;;7.22;3.40;;;;;;;;;;5087505;28;20138;-79
2022/08/15 03:49:47;;;;;;;6.70;3.20;;;;;;;;;;5075542;28;20041;-79
2022/08/15 03:52:13;;;;;;;7.13;4.18;;;;;;;;;;5076447;28;20036;-78
2022/08/15 03:54:40;;;;;;;8.98;3.63;;;;;;;;;;5085568;28;20056;-79
2022/08/15 03:57:06;;;;;;;6.43;4.55;;;;;;;;;;5079791;28;20076;-78
2022/08/15 03:59:33;;;;;;;6.03;3.40;;;;;;;;;;5072844;28;20032;-79
2022/08/15 04:02:00;;;;;;;5.95;4.15;;;;;;;;;;5090437;28;20815;-78
2022/08/15 04:04:26;;;;;;;7.07;3.72;;;;;;;;;;5089137;28;20032;-79
2022/08/15 04:06:52;;;;;;;5.32;3.55;;;;;;;;;;5089233;28;20039;-79
2022/08/15 04:09:18;;;;;;;5.78;3.30;;;;;;;;;;5087535;28;20116;-79
2022/08/15 04:11:45;;;;;;;11.90;4.45;;;;;;;;;;5084496;28;20028;-78
2022/08/15 04:14:11;;;;;;;6.53;3.60;;;;;;;;;;5090044;28;20031;-79
2022/08/15 04:16:37;;;;;;;5.78;3.70;;;;;;;;;;5085750;28;20028;-79
2022/08/15 04:19:04;;;;;;;6.90;4.03;;;;;;;;;;5090865;28;20055;-79
2022/08/15 04:21:30;;;;;;;7.20;3.80;;;;;;;;;;5084609;28;20036;-79
2022/08/15 04:23:56;;;;;;;6.95;3.47;;;;;;;;;;5081463;28;20526;-79
2022/08/15 04:26:23;;;;;;;8.05;5.00;;;;;;;;;;5078053;28;20064;-79
2022/08/15 04:28:50;;;;;;;7.00;4.78;;;;;;;;;;5082660;28;20105;-79
2022/08/15 04:31:20;;;;;;;6.25;4.95;;;;;;;;;;5081826;28;20034;-79
2022/08/15 04:33:47;;;;;;;6.32;3.83;;;;;;;;;;5081151;28;20028;-78
2022/08/15 04:36:15;;;;;;;6.28;3.45;;;;;;;;;;5079842;28;20032;-78
2022/08/15 04:38:42;;;;;;;5.55;4.15;;;;;;;;;;5090797;28;20028;-79
2022/08/15 04:41:09;;;;;;;9.40;5.10;;;;;;;;;;5087128;28;20028;-79
2022/08/15 04:43:35;;;;;;;9.98;5.95;;;;;;;;;;5084607;28;20032;-79
2022/08/15 04:46:01;;;;;;;6.90;5.50;;;;;;;;;;5081511;28;20105;-79
2022/08/15 04:48:27;;;;;;;8.13;6.47;;;;;;;;;;5082841;28;20086;-79
2022/08/15 04:50:54;;;;;;;9.18;5.68;;;;;;;;;;5069362;28;20494;-78
2022/08/15 04:53:24;;;;;;;5.28;3.65;;;;;;;;;;5072848;28;20016;-79
2022/08/15 04:55:50;;;;;;;4.13;2.63;;;;;;;;;;5079739;28;20024;-79
2022/08/15 04:58:16;;;;;;;3.85;2.90;;;;;;;;;;5090472;28;20028;-79
2022/08/15 05:00:49;;;;;;;6.55;3.00;;;;;;;;;;5083277;28;20098;-79
2022/08/15 05:03:17;;;;;;;4.43;2.72;;;;;;;;;;5090187;28;20026;-79
2022/08/15 05:05:45;;;;;;;5.22;4.05;;;;;;;;;;5074901;28;20020;-79
2022/08/15 05:08:11;;;;;;;5.40;3.40;;;;;;;;;;5081650;28;20031;-79
2022/08/15 05:10:39;;;;;;;7.53;4.90;;;;;;;;;;5088475;28;20502;-78
2022/08/15 05:13:25;;;;;;;5.93;4.63;;;;;;;;;;5072716;28;20049;-79
2022/08/15 05:15:52;;;;;;;6.93;4.47;;;;;;;;;;5070455;28;22139;-78
2022/08/15 05:18:18;;;;;;;7.93;4.85;;;;;;;;;;5092211;28;20554;-79
2022/08/15 05:20:44;;;;;;;9.80;4.68;;;;;;;;;;5074070;28;20052;-79
2022/08/15 05:23:12;;;;;;;6.68;4.55;;;;;;;;;;5085052;28;20028;-79
2022/08/15 05:25:40;;;;;;;8.52;5.38;;;;;;;;;;5088801;28;20028;-79
2022/08/15 05:28:06;;;;;;;9.85;5.82;;;;;;;;;;5082685;28;20025;-78
2022/08/15 05:30:32;;;;;;;8.70;5.50;;;;;;;;;;5083566;28;20036;-78
2022/08/15 05:33:13;;;;;;;9.73;5.72;;;;;;;;;;5079785;28;20047;-78
2022/08/15 05:35:47;;;;;;;7.22;4.55;;;;;;;;;;5075083;28;20703;-78
2022/08/15 05:38:23;;;;;;;6.57;3.90;;;;;;;;;;5082092;28;20073;-78
2022/08/15 05:40:53;;;;;;;5.57;3.50;;;;;;;;;;5089791;28;20027;-78
2022/08/15 05:43:26;;;;;;;8.35;3.97;;;;;;;;;;5078532;28;20374;-78
2022/08/15 05:45:58;;;;;;;7.13;3.50;;;;;;;;;;5089086;28;20032;-78
2022/08/15 05:48:29;;;;;;;5.97;3.78;;;;;;;;;;5080882;28;20024;-78
2022/08/15 05:51:02;;;;;;;5.57;3.63;;;;;;;;;;5085668;28;20024;-78
2022/08/15 05:53:46;;;;;;;8.57;3.75;;;;;;;;;;5080196;28;20419;-78
2022/08/15 05:56:25;;;;;;;5.65;3.65;;;;;;;;;;5079853;28;20036;-78
2022/08/15 05:58:54;;;;;;;5.40;2.80;;;;;;;;;;5064243;28;20032;-78
2022/08/15 06:01:26;;;;;;;5.60;3.10;;;;;;;;;;5058397;28;20051;-78
2022/08/15 06:04:11;;;;;;;5.40;3.22;;;;;;;;;;5057428;28;20033;-78
2022/08/15 06:06:40;;;;;;;4.13;2.58;;;;;;;;;;5069241;28;20100;-78
2022/08/15 06:09:23;;;;;;;4.50;2.60;;;;;;;;;;5066471;28;20104;-78
2022/08/15 06:11:53;;;;;;;4.32;2.70;;;;;;;;;;5068782;28;20097;-78
2022/08/15 06:14:19;;;;;;;4.40;2.50;;;;;;;;;;5065706;28;20473;-78
2022/08/15 06:16:52;;;;;;;4.78;3.03;;;;;;;;;;5073755;28;20558;-78
2022/08/15 06:19:22;;;;;;;5.28;2.80;;;;;;;;;;5059319;28;20056;-78
2022/08/15 06:21:56;;;;;;;3.90;2.75;;;;;;;;;;5065939;28;20035;-78
2022/08/15 06:24:38;;;;;;;4.20;2.70;;;;;;;;;;5063364;28;20043;-78
2022/08/15 06:27:10;;;;;;;5.75;3.30;;;;;;;;;;5065201;28;20041;-78
2022/08/15 06:29:55;;;;;;;6.15;2.58;;;;;;;;;;5060899;28;20032;-78
2022/08/15 06:32:33;;;;;;;4.88;2.65;;;;;;;;;;5062942;28;20468;-78
2022/08/15 06:35:04;;;;;;;5.25;3.40;;;;;;;;;;5062252;28;20037;-78
2022/08/15 06:37:37;;;;;;;6.70;3.13;;;;;;;;;;5062679;28;20029;-78
2022/08/15 06:40:09;;;;;;;7.82;3.00;;;;;;;;;;5058239;28;20032;-78
2022/08/15 06:42:36;;;;;;;4.88;2.20;;;;;;;;;;5063700;28;20031;-78
2022/08/15 06:45:22;;;;;;;4.85;3.17;;;;;;;;;;5066545;28;20101;-79
2022/08/15 06:47:49;;;;;;;6.53;2.88;;;;;;;;;;5061555;28;20020;-79
2022/08/15 06:50:17;;;;;;;4.15;2.50;;;;;;;;;;5066561;28;20064;-78
2022/08/15 06:52:48;;;;;;;6.93;3.42;;;;;;;;;;5060632;28;20488;-78
2022/08/15 06:55:14;;;;;;;5.97;3.30;;;;;;;;;;5067416;28;20067;-78
2022/08/15 06:57:45;;;;;;;6.40;3.08;;;;;;;;;;5060554;28;20072;-78
2022/08/15 07:00:23;;;;;;;6.33;3.10;;;;;;;;;;5064451;28;20032;-78
2022/08/15 07:02:54;;;;;;;4.97;2.78;;;;;;;;;;5068939;28;20028;-78
2022/08/15 07:05:25;;;;;;;4.82;2.58;;;;;;;;;;5069036;28;20469;-78
2022/08/15 07:08:00;;;;;;;3.80;2.63;;;;;;;;;;5070971;28;20029;-78
2022/08/15 07:10:46;;;;;;;7.05;2.60;;;;;;;;;;5063219;28;20167;-78
2022/08/15 07:13:20;;;;;;;5.82;2.35;;;;;;;;;;5066600;28;20937;-78
2022/08/15 07:15:52;;;;;;;4.75;2.70;;;;;;;;;;5070997;28;20032;-78
2022/08/15 07:18:22;;;;;;;5.65;3.38;;;;;;;;;;5061350;28;20390;-78
2022/08/15 07:20:48;;;;;;;7.00;2.63;;;;;;;;;;5065144;28;20119;-78
2022/08/15 07:23:18;;;;;;;3.80;2.50;;;;;;;;;;5061056;28;20049;-78
2022/08/15 07:25:48;;;;;;;4.45;2.78;;;;;;;;;;5067174;28;20029;-78
2022/08/15 07:28:16;;;;;;;5.65;3.30;;;;;;;;;;5069805;28;20029;-77
2022/08/15 07:30:44;;;;;;;6.55;2.55;;;;;;;;;;5065508;28;20081;-78
2022/08/15 07:33:26;;;;;;;4.10;2.42;;;;;;;;;;5065118;28;20390;-78
2022/08/15 07:35:58;;;;;;;4.53;2.50;;;;;;;;;;5066713;28;20103;-78
2022/08/15 07:38:28;;;;;;;4.47;2.53;;;;;;;;;;5068568;28;20020;-78
2022/08/15 07:41:11;;;;;;;3.97;2.65;;;;;;;;;;5066712;28;20039;-78
2022/08/15 07:43:38;;;;;;;4.65;2.55;;;;;;;;;;5064133;28;20035;-78
2022/08/15 07:46:22;;;;;;;5.22;2.88;;;;;;;;;;5068937;28;20040;-78
2022/08/15 07:48:59;;;;;;;8.73;3.05;;;;;;;;;;5068785;28;20035;-78
2022/08/15 07:51:31;;;;;;;5.15;2.67;;;;;;;;;;5068533;28;20055;-78
2022/08/15 07:53:57;;;;;;;4.35;2.75;;;;;;;;;;5070393;28;20048;-78
2022/08/15 07:56:24;;;;;;;10.05;2.65;;;;;;;;;;5063478;28;20040;-78
2022/08/15 07:58:55;;;;;;;9.05;2.90;;;;;;;;;;5067542;28;20094;-78
2022/08/15 08:01:27;;;;;;;8.23;2.97;;;;;;;;;;5062238;28;20507;-78
2022/08/15 08:03:57;;;;;;;5.43;2.53;;;;;;;;;;5061939;28;20029;-78
2022/08/15 08:06:23;;;;;;;5.10;2.58;;;;;;;;;;5062146;28;20115;-78
2022/08/15 08:08:52;;;;;;;5.78;2.90;;;;;;;;;;5064640;28;20108;-78
2022/08/15 08:11:24;;;;;;;4.53;2.63;;;;;;;;;;5066912;28;20036;-78
2022/08/15 08:14:06;;;;;;;6.07;2.50;;;;;;;;;;5068008;28;20357;-77
2022/08/15 08:16:38;;;;;;;4.63;2.70;;;;;;;;;;5061238;28;20131;-78
2022/08/15 08:19:10;;;;;;;4.75;2.40;;;;;;;;;;5066460;28;20036;-78
2022/08/15 08:21:42;;;;;;;4.53;2.67;;;;;;;;;;5069352;28;20029;-78
2022/08/15 08:24:08;;;;;;;;;;;;;;;;;;5062766;28;20120;-78
2022/08/15 08:26:40;;;;;;;4.32;2.40;;;;;;;;;;5057633;28;20326;-78
2022/08/15 08:29:09;;;;;;;8.23;3.30;;;;;;;;;;5064024;28;20032;-78
2022/08/15 08:31:42;;;;;;;4.32;2.50;;;;;;;;;;5069480;28;20044;-78
2022/08/15 08:34:16;;;;;;;6.95;3.10;;;;;;;;;;5070684;28;20038;-78
2022/08/15 08:36:42;;;;;;;3.70;2.58;;;;;;;;;;5065141;28;20871;-78
2022/08/15 08:39:08;;;;;;;7.97;2.50;;;;;;;;;;5069207;28;20037;-78
2022/08/15 08:41:45;;;;;;;5.18;2.88;;;;;;;;;;5065159;28;20369;-78
2022/08/15 08:44:20;;;;;;;4.20;2.40;;;;;;;;;;5068124;28;20519;-78
2022/08/15 08:46:49;;;;;;;3.65;2.38;;;;;;;;;;5063672;28;20024;-78
2022/08/15 08:49:20;;;;;;;5.30;2.50;;;;;;;;;;5067791;28;20178;-78
2022/08/15 08:51:46;;;;;;;4.63;2.40;;;;;;;;;;5063946;28;20048;-78
2022/08/15 08:54:18;;;;;;;4.53;2.60;;;;;;;;;;5060979;28;20181;-78
2022/08/15 08:56:46;;;;;;;7.72;2.67;;;;;;;;;;5059955;28;20025;-78
2022/08/15 08:59:20;;;;;;;5.60;2.70;;;;;;;;;;5061407;28;20032;-78
2022/08/15 09:01:50;;;;;;;6.28;2.70;;;;;;;;;;5058942;28;20032;-78
2022/08/15 09:04:19;;;;;;;4.68;2.80;;;;;;;;;;5060919;28;20032;-78
2022/08/15 09:06:46;;;;;;;4.78;2.60;;;;;;;;;;5065770;28;20029;-78
2022/08/15 09:09:12;;;;;;;6.88;2.95;;;;;;;;;;5062338;28;20043;-78
2022/08/15 09:11:41;;;;;;;4.65;2.28;;;;;;;;;;5063845;28;20025;-78
2022/08/15 09:14:27;;;;;;;4.57;2.22;;;;;;;;;;5061478;28;20075;-78
2022/08/15 09:16:55;;;;;;;7.68;2.63;;;;;;;;;;5059455;28;20043;-79
2022/08/15 09:19:27;;;;;;;4.57;2.72;;;;;;;;;;5061906;28;20482;-79
2022/08/15 09:21:54;;;;;;;4.88;2.33;;;;;;;;;;5060007;28;20036;-79
2022/08/15 09:24:21;;;;;;;4.72;2.38;;;;;;;;;;5062504;28;20060;-78
2022/08/15 09:26:50;;;;;;;5.72;2.50;;;;;;;;;;5058322;28;20025;-78
2022/08/15 09:29:19;;;;;;;4.03;2.53;;;;;;;;;;5060920;28;20032;-78
2022/08/15 09:31:52;;;;;;;5.70;2.80;;;;;;;;;;5060757;28;20513;-78
2022/08/15 09:34:36;;;;;;;3.92;2.30;;;;;;;;;;5068725;28;20036;-79
2022/08/15 09:37:16;;;;;;;4.55;2.30;;;;;;;;;;5067064;28;20028;-78
2022/08/15 09:40:00;;;;;;;4.07;2.03;;;;;;;;;;5069158;28;20126;-78
2022/08/15 09:42:46;;;;;;;5.40;2.72;;;;;;;;;;5064115;28;20032;-78
2022/08/15 09:45:31;;;;;;;5.70;2.55;;;;;;;;;;5066471;28;20815;-78
2022/08/15 09:48:00;;;;;;;7.47;2.90;;;;;;;;;;5064619;28;20504;-78
2022/08/15 09:50:39;;;;;;;6.47;2.90;;;;;;;;;;5067363;28;20041;-78
2022/08/15 09:53:08;;;;;;;5.00;2.22;;;;;;;;;;5067903;28;20103;-78
2022/08/15 09:55:34;;;;;;;4.95;2.63;;;;;;;;;;5069564;28;20064;-78
2022/08/15 09:58:10;;;;;;;7.25;3.00;;;;;;;;;;5069573;28;20074;-78
2022/08/15 10:01:06;;;;;;;4.78;2.47;;;;;;;;;;5066576;28;20041;-78
2022/08/15 10:03:44;;;;;;;7.03;3.40;;;;;;;;;;5065113;28;20047;-78
2022/08/15 10:06:23;;;;;;;4.20;2.67;;;;;;;;;;5060301;28;20025;-79
2022/08/15 10:09:06;;;;;;;4.80;3.30;;;;;;;;;;5067387;28;20041;-78
2022/08/15 10:11:35;;;;;;;7.85;3.40;;;;;;;;;;5069742;28;20024;-78
2022/08/15 10:14:06;;;;;;;4.80;2.58;;;;;;;;;;5067673;28;20035;-78
2022/08/15 10:16:41;;;;;;;5.75;2.55;;;;;;;;;;5074786;28;20029;-79
2022/08/15 10:19:08;;;;;;;5.25;2.60;;;;;;;;;;5065303;28;20688;-78
2022/08/15 10:21:44;;;;;;;6.78;2.80;;;;;;;;;;5070999;28;20151;-79
2022/08/15 10:24:29;;;;;;;6.13;2.47;;;;;;;;;;5065068;28;20061;-78
2022/08/15 10:27:07;;;;;;;10.13;3.05;;;;;;;;;;5068366;28;20032;-78
2022/08/15 10:29:34;;;;;;;8.68;3.20;;;;;;;;;;5068697;28;20044;-79
2022/08/15 10:32:01;;;;;;;8.07;2.45;;;;;;;;;;5071177;28;20024;-79
2022/08/15 10:34:49;;;;;;;4.43;2.70;;;;;;;;;;5069000;28;20044;-78
2022/08/15 10:37:15;;;;;;;5.13;2.38;;;;;;;;;;5058060;28;20373;-78
2022/08/15 10:39:53;;;;;;;5.70;3.15;;;;;;;;;;5069742;28;20032;-78
2022/08/15 10:42:38;;;;;;;5.47;2.78;;;;;;;;;;5067903;28;20056;-78
2022/08/15 10:45:17;;;;;;;4.50;2.70;;;;;;;;;;5064540;28;20036;-79
2022/08/15 10:48:05;;;;;;;4.32;2.30;;;;;;;;;;5063146;28;20037;-78
2022/08/15 10:50:32;;;;;;;7.90;2.75;;;;;;;;;;5063751;28;20797;-78
2022/08/15 10:53:11;;;;;;;6.10;2.58;;;;;;;;;;5060345;28;20091;-78
2022/08/15 10:55:38;;;;;;;6.22;2.70;;;;;;;;;;5066569;28;20036;-78
2022/08/15 10:58:09;;;;;;;5.70;1.83;;;;;;;;;;5064519;28;20070;-79
2022/08/15 11:00:46;;;;;;;3.20;1.85;;;;;;;;;;5063670;28;20025;-79
2022/08/15 11:03:39;;;;;;;5.45;2.17;;;;;;;;;;5059000;28;20028;-79
2022/08/15 11:06:06;;;;;;;7.40;2.72;;;;;;;;;;5059275;28;20052;-78
2022/08/15 11:08:35;;;;;;;6.72;2.50;;;;;;;;;;5071633;28;20433;-78
2022/08/15 11:11:07;;;;;;;4.15;2.20;;;;;;;;;;5058617;28;20025;-78
2022/08/15 11:13:35;;;;;;;5.30;2.80;;;;;;;;;;5071323;28;20036;-79
2022/08/15 11:16:11;;;;;;;6.18;3.17;;;;;;;;;;5067834;28;20025;-79
2022/08/15 11:18:40;;;;;;;17.10;2.83;;;;;;;;;;5068657;28;20032;-80
2022/08/15 11:21:24;;;;;;;5.20;2.92;;;;;;;;;;5065792;28;20029;-79
2022/08/15 11:23:52;;;;;;;4.30;2.50;;;;;;;;;;5070285;28;20156;-78
2022/08/15 11:26:22;;;;;;;6.20;2.80;;;;;;;;;;5064923;28;20032;-78
2022/08/15 11:28:49;;;;;;;7.82;3.13;;;;;;;;;;5063603;28;20029;-78
2022/08/15 11:31:19;;;;;;;6.10;2.65;;;;;;;;;;5068996;28;20016;-78
2022/08/15 11:33:49;;;;;;;5.32;2.60;;;;;;;;;;5071063;28;20036;-78
2022/08/15 11:36:20;;;;;;;4.38;2.63;;;;;;;;;;5069116;28;20025;-78
2022/08/15 11:39:16;;;;;;;4.38;2.45;;;;;;;;;;5069183;28;20075;-78
2022/08/15 11:41:47;;;;;;;5.45;2.95;;;;;;;;;;5051620;28;20470;-78
2022/08/15 11:44:14;;;;;;;6.18;3.13;;;;;;;;;;5061184;28;20037;-78
2022/08/15 11:46:40;;;;;;;4.72;2.97;;;;;;;;;;5063889;28;20117;-78
2022/08/15 11:49:06;;;;;;;5.47;2.78;;;;;;;;;;5064534;28;20043;-78
2022/08/15 11:51:41;;;;;;;7.35;2.70;;;;;;;;;;5067383;28;20051;-78
2022/08/15 11:54:12;;;;;;;4.57;2.63;;;;;;;;;;5068941;28;20074;-79
2022/08/15 11:56:48;;;;;;;5.60;2.95;;;;;;;;;;5061446;28;20062;-78
2022/08/15 11:59:23;;;;;;;10.98;2.67;;;;;;;;;;5065085;28;20025;-79
2022/08/15 12:02:09;;;;;;;5.95;2.72;;;;;;;;;;5066584;28;20028;-78
2022/08/15 12:04:38;;;;;;;4.40;2.33;;;;;;;;;;5062261;28;20028;-78
2022/08/15 12:07:15;;;;;;;5.85;2.95;;;;;;;;;;5059471;28;20024;-78
2022/08/15 12:09:49;;;;;;;4.53;2.53;;;;;;;;;;5059402;28;20070;-78
2022/08/15 12:12:24;;;;;;;6.00;2.55;;;;;;;;;;5065873;28;20032;-78
2022/08/15 12:14:50;;;;;;;8.13;2.85;;;;;;;;;;5061194;28;20068;-79
2022/08/15 12:17:28;;;;;;;5.50;2.75;;;;;;;;;;5055839;28;20039;-79
2022/08/15 12:19:55;;;;;;;5.63;2.55;;;;;;;;;;5058801;28;20045;-78
2022/08/15 12:22:41;;;;;;;6.85;2.75;;;;;;;;;;5063656;28;20386;-78
2022/08/15 12:25:08;;;;;;;6.60;2.60;;;;;;;;;;5060571;28;20028;-78
2022/08/15 12:27:35;;;;;;;7.47;2.05;;;;;;;;;;5061652;28;20074;-78
2022/08/15 12:30:04;;;;;;;6.97;2.35;;;;;;;;;;5059117;28;20041;-78
2022/08/15 12:32:31;;;;;;;6.88;2.60;;;;;;;;;;5061823;28;20039;-79
2022/08/15 12:34:57;;;;;;;4.72;2.40;;;;;;;;;;5060737;28;20032;-79
2022/08/15 12:37:25;;;;;;;5.82;2.25;;;;;;;;;;5063134;28;20775;-78
2022/08/15 12:40:06;;;;;;;6.13;2.47;;;;;;;;;;5062251;28;20481;-78
2022/08/15 12:42:33;;;;;;;5.07;2.22;;;;;;;;;;5065956;28;20025;-79
2022/08/15 12:45:01;;;;;;;4.65;2.30;;;;;;;;;;5056181;28;20067;-78
2022/08/15 12:47:29;;;;;;;6.05;2.15;;;;;;;;;;5063193;28;20032;-78
2022/08/15 12:49:56;;;;;;;4.65;2.05;;;;;;;;;;5064725;28;20037;-78
2022/08/15 12:52:24;;;;;;;8.75;2.55;;;;;;;;;;5062146;28;20017;-78
2022/08/15 12:54:51;;;;;;;5.68;2.30;;;;;;;;;;5046379;28;20495;-78
2022/08/15 12:57:18;;;;;;;8.32;2.33;;;;;;;;;;5063079;28;20025;-79
2022/08/15 12:59:44;;;;;;;5.13;2.03;;;;;;;;;;5057778;28;20124;-78
2022/08/15 13:02:11;;;;;;;7.20;2.10;;;;;;;;;;5064928;28;20024;-79
2022/08/15 13:04:38;;;;;;;8.57;2.38;;;;;;;;;;5066796;28;20543;-79
2022/08/15 13:07:04;;;;;;;6.10;2.50;;;;;;;;;;5065682;28;20028;-78
2022/08/15 13:09:31;;;;;;;6.53;1.98;;;;;;;;;;5064075;28;20044;-78
2022/08/15 13:12:00;;;;;;;6.65;2.10;;;;;;;;;;5057776;28;20032;-79
2022/08/15 13:14:26;;;;;;;6.30;2.30;;;;;;;;;;5063863;28;20044;-78
2022/08/15 13:16:54;;;;;;;7.15;2.08;;;;;;;;;;5069103;28;20029;-78
2022/08/15 13:19:25;;;;;;;4.85;2.45;;;;;;;;;;5065868;28;20044;-78
2022/08/15 13:24:37;;;;;;;6.22;2.20;;;;;;;;;;5067353;28;20113;-78
2022/08/15 13:27:04;;;;;;;8.23;2.03;;;;;;;;;;5065445;28;20116;-78
2022/08/15 13:29:30;;;;;;;3.90;1.75;;;;;;;;;;5056465;28;20542;-78
2022/08/15 13:31:57;;;;;;;6.50;2.13;;;;;;;;;;5066818;28;20473;-78
2022/08/15 13:34:24;;;;;;;5.85;2.47;;;;;;;;;;5054550;28;20841;-79
2022/08/15 13:36:50;;;;;;;5.90;2.28;;;;;;;;;;5065533;28;20033;-78
2022/08/15 13:39:21;;;;;;;6.22;2.20;;;;;;;;;;5054909;28;20818;-78
2022/08/15 13:41:48;;;;;;;6.45;2.33;;;;;;;;;;5063485;28;20036;-78
2022/08/15 13:44:15;;;;;;;6.22;2.60;;;;;;;;;;5066134;28;20040;-79
2022/08/15 13:46:42;;;;;;;6.53;2.53;;;;;;;;;;5063817;28;20044;-78
2022/08/15 13:49:10;;;;;;;4.95;2.30;;;;;;;;;;5068949;28;20036;-79
2022/08/15 13:51:44;;;;;;;5.82;2.55;;;;;;;;;;5064108;28;20048;-78
2022/08/15 13:54:11;;;;;;;6.35;2.35;;;;;;;;;;5052881;28;20137;-78
2022/08/15 13:56:38;;;;;;;8.65;3.55;;;;;;;;;;5056769;28;20032;-78
2022/08/15 13:59:06;;;;;;;6.65;2.60;;;;;;;;;;5063721;28;20033;-78
2022/08/15 14:01:33;;;;;;;6.18;2.20;;;;;;;;;;5063410;28;20020;-78
2022/08/15 14:04:13;;;;;;;7.82;2.28;;;;;;;;;;5056537;28;20139;-78
2022/08/15 14:06:40;;;;;;;9.77;2.90;;;;;;;;;;5066046;28;20036;-78
2022/08/15 14:09:07;;;;;;;6.63;2.33;;;;;;;;;;5058768;28;20557;-78
2022/08/15 14:11:35;;;;;;;6.63;2.40;;;;;;;;;;5059497;28;20036;-78
2022/08/15 14:14:01;;;;;;;7.57;2.38;;;;;;;;;;5062556;28;20028;-78
2022/08/15 14:16:30;;;;;;;5.05;2.17;;;;;;;;;;5066867;28;20112;-78
2022/08/15 14:18:56;;;;;;;8.02;2.58;;;;;;;;;;5070915;28;20070;-78
2022/08/15 14:21:22;;;;;;;10.15;2.30;;;;;;;;;;5073341;28;20036;-78
2022/08/15 14:23:49;;;;;;;5.78;2.40;;;;;;;;;;5067216;28;20116;-78
2022/08/15 14:26:16;;;;;;;5.97;2.20;;;;;;;;;;5066771;28;20107;-78
2022/08/15 14:28:42;;;;;;;8.82;2.30;;;;;;;;;;5065805;28;20037;-78
2022/08/15 14:31:09;;;;;;;5.90;2.80;;;;;;;;;;5069167;28;20031;-78
2022/08/15 14:33:35;;;;;;;10.85;2.72;;;;;;;;;;5065789;28;20021;-78
2022/08/15 14:36:01;;;;;;;7.00;2.53;;;;;;;;;;5061091;28;20140;-78
2022/08/15 14:38:29;;;;;;;7.38;2.30;;;;;;;;;;5058868;28;20032;-78
2022/08/15 14:40:55;;;;;;;10.07;3.00;;;;;;;;;;5063076;28;20052;-78
2022/08/15 14:43:22;;;;;;;5.53;2.58;;;;;;;;;;5064087;28;20025;-78
2022/08/15 14:45:50;;;;;;;7.72;2.40;;;;;;;;;;5062536;28;20024;-78
2022/08/15 14:48:17;;;;;;;8.18;2.53;;;;;;;;;;5043843;28;20028;-78
2022/08/15 14:50:43;;;;;;;5.32;2.20;;;;;;;;;;5062522;28;20040;-78
2022/08/15 14:53:11;;;;;;;5.32;2.17;;;;;;;;;;5064893;28;20366;-78
2022/08/15 14:55:39;;;;;;;5.20;2.28;;;;;;;;;;5062105;28;20036;-78
2022/08/15 14:58:06;;;;;;;6.40;2.20;;;;;;;;;;5055617;28;20021;-78
2022/08/15 15:00:32;;;;;;;8.25;2.45;;;;;;;;;;5070633;28;20150;-78
2022/08/15 15:02:59;;;;;;;5.00;2.25;;;;;;;;;;5071622;28;20025;-79
2022/08/15 15:05:25;;;;;;;5.88;2.20;;;;;;;;;;5065979;28;20466;-78
2022/08/15 15:07:56;;;;;;;5.00;2.45;;;;;;;;;;5063422;28;20027;-78
2022/08/15 15:10:22;;;;;;;4.68;2.58;;;;;;;;;;5063621;28;20036;-78